Corfu International

Airport
ICAO code: 
LGKR
IATA Code: 
CFU
Summary
ICAO Region: 
EUR
Territory: 
Location: 
Pontikonisi, Corfu
Serving: 
Corfu
Elevation: 
6 ft
Coordinates: 
Aerial View: 
39° 36' 6.833" N, 19° 54' 42.117" E
Airport WX: 
Cumulonimbus
Metar
Observation
LGKR 192350Z 00000KT 9999 SCT080 03/01 Q1028 NOSIG
Station
Kerkyra Airport
Date/Time
2022-01-19 23:50:00
Wind direction
Wind speed
00 kts
Lowest cloud amount
scattered clouds
Temperature
3°C
Dew point
1°C
Humidity
86%
QNH
1028 hPa
Weather condition
n/a

Description

Corfu International Airport, "Ioannis Kapodistrias" or Ioannis Kapodistrias (Capodistrias) International Airport (IATA: CFU) is an airport on the Greek island of Corfu at Kerkyra, serving both scheduled and charter flights from European cities. The airport is located around 3 km south of Corfu Town, half a kilometre north of Pontikonisi.

Climatology

Dry-summer subtropical ”Mediterranean" climate (Köppen climate classification Csa) - characterized by hot, dry summers and mild winters. During the summer, subtropical high pressure cells dominate, making rainfall unlikely except for the occasional thunderstorm. In the winter, periodic storms bring rain (snow at higher elevations).

Runways

Designator Length Width Surface Rops
17/35 2375 45 ASP Yes/Yes
Airport map: 
Aerial View: 

SKYbrary Partners:

Safety knowledge contributed by: